Time;durP1;ratioP1;P1;durP2;ratioP2;P2;SDS_P1;SDS_P2;PMS_P1;PMS_P2;Temp;Humidity;BMP_temperature;BMP_pressure;BME280_temperature;BME280_humidity;BME280_pressure;Samples;Min_cycle;Max_cycle;Signal;HPM_P1;HPM_P2
2024/03/22 00:01:43;;;;;;;6.73;2.77;;;;;;;8.28;100.00;101589.41;5057000;28;20448;-64
2024/03/22 00:04:10;;;;;;;6.20;2.83;;;;;;;8.35;100.00;101583.75;5056591;28;20977;-65
2024/03/22 00:06:36;;;;;;;5.23;2.23;;;;;;;8.33;100.00;101586.72;5057021;28;20433;-65
2024/03/22 00:09:02;;;;;;;7.13;2.70;;;;;;;8.33;100.00;101578.63;5056853;28;20526;-65
2024/03/22 00:11:28;;;;;;;4.23;1.93;;;;;;;8.31;100.00;101579.94;5056530;28;20254;-65
2024/03/22 00:13:55;;;;;;;7.30;2.30;;;;;;;8.31;100.00;101580.75;5056394;28;20462;-65
2024/03/22 00:16:20;;;;;;;5.30;2.40;;;;;;;8.32;100.00;101577.00;5056776;28;20203;-65
2024/03/22 00:18:48;;;;;;;4.20;1.93;;;;;;;8.37;100.00;101572.72;5056329;28;20488;-65
2024/03/22 00:21:14;;;;;;;4.40;2.23;;;;;;;8.41;100.00;101560.31;5056677;28;20210;-65
2024/03/22 00:23:40;;;;;;;5.87;2.90;;;;;;;8.42;100.00;101554.69;5056510;28;20540;-65
2024/03/22 00:26:07;;;;;;;5.57;2.80;;;;;;;8.41;100.00;101552.22;5056478;28;20239;-65
2024/03/22 00:28:34;;;;;;;5.13;2.77;;;;;;;8.34;100.00;101557.84;5056633;28;20433;-64
2024/03/22 00:30:59;;;;;;;5.90;2.50;;;;;;;8.34;100.00;101550.56;5056690;28;20441;-64
2024/03/22 00:33:26;;;;;;;7.90;3.00;;;;;;;8.40;100.00;101553.31;5056145;28;20464;-64
2024/03/22 00:35:53;;;;;;;4.23;2.07;;;;;;;8.38;100.00;101544.66;5056329;28;20283;-64
2024/03/22 00:38:19;;;;;;;4.30;2.37;;;;;;;8.37;100.00;101546.56;5056505;28;20446;-64
2024/03/22 00:40:45;;;;;;;5.63;2.63;;;;;;;8.32;100.00;101538.38;5056360;28;21009;-64
2024/03/22 00:43:11;;;;;;;6.33;3.07;;;;;;;8.28;100.00;101540.00;5056302;28;20553;-64
2024/03/22 00:45:37;;;;;;;9.77;2.97;;;;;;;8.20;100.00;101535.91;5056473;28;20648;-65
2024/03/22 00:48:04;;;;;;;6.60;2.63;;;;;;;8.16;100.00;101532.09;5055059;28;20525;-65
2024/03/22 00:50:29;;;;;;;7.50;2.87;;;;;;;8.14;100.00;101541.53;5056135;28;20743;-65
2024/03/22 00:52:57;;;;;;;5.70;2.40;;;;;;;8.18;100.00;101538.03;5056104;28;20537;-64
2024/03/22 00:55:23;;;;;;;4.37;2.40;;;;;;;8.20;100.00;101533.22;5056101;28;20207;-64
2024/03/22 00:57:50;;;;;;;5.00;2.40;;;;;;;8.24;100.00;101531.63;5056131;28;20453;-64
2024/03/22 01:00:16;;;;;;;5.43;2.47;;;;;;;8.25;100.00;101513.53;5055813;28;20489;-64
2024/03/22 01:02:44;;;;;;;10.27;4.13;;;;;;;8.23;100.00;101516.47;5055681;28;20516;-65
2024/03/22 01:05:09;;;;;;;8.97;3.60;;;;;;;8.21;100.00;101521.34;5055844;28;20442;-64
2024/03/22 01:07:36;;;;;;;6.13;3.20;;;;;;;8.20;100.00;101508.91;5055582;28;20465;-64
2024/03/22 01:10:04;;;;;;;4.73;2.30;;;;;;;8.19;100.00;101501.91;5055586;28;20755;-64
2024/03/22 01:12:30;;;;;;;5.77;2.80;;;;;;;8.19;100.00;101499.22;5055806;28;20462;-64
2024/03/22 01:14:56;;;;;;;6.10;3.00;;;;;;;8.22;100.00;101495.97;5055617;28;20442;-64
2024/03/22 01:17:23;;;;;;;8.17;3.03;;;;;;;8.22;100.00;101501.34;5055529;28;20441;-64
2024/03/22 01:19:49;;;;;;;5.30;2.37;;;;;;;8.25;100.00;101506.25;5055549;28;20231;-64
2024/03/22 01:22:15;;;;;;;5.97;3.13;;;;;;;8.28;100.00;101505.72;5055674;28;20470;-64
2024/03/22 01:24:41;;;;;;;8.00;3.20;;;;;;;8.29;100.00;101504.66;5055376;28;20294;-64
2024/03/22 01:27:09;;;;;;;6.93;3.20;;;;;;;8.27;100.00;101498.69;5055022;28;20541;-64
2024/03/22 01:29:35;;;;;;;8.20;3.73;;;;;;;8.28;100.00;101494.13;5055351;28;20228;-65
2024/03/22 01:32:02;;;;;;;5.70;2.33;;;;;;;8.30;100.00;101491.97;5055315;28;20450;-64
2024/03/22 01:34:27;;;;;;;5.70;2.80;;;;;;;8.31;100.00;101482.78;5055276;28;20529;-64
2024/03/22 01:36:54;;;;;;;5.00;2.07;;;;;;;8.31;100.00;101483.59;5054862;28;20529;-64
2024/03/22 01:39:21;;;;;;;7.10;2.33;;;;;;;8.34;100.00;101484.97;5055136;28;20226;-64
2024/03/22 01:41:47;;;;;;;5.63;2.60;;;;;;;8.34;100.00;101483.06;5054842;28;20984;-64
2024/03/22 01:44:14;;;;;;;6.20;2.23;;;;;;;8.35;100.00;101471.19;5054831;28;20960;-64
2024/03/22 01:46:41;;;;;;;8.07;2.83;;;;;;;8.38;100.00;101475.28;5054773;28;20443;-64
2024/03/22 01:49:08;;;;;;;5.30;2.70;;;;;;;8.38;100.00;101474.47;5055120;28;20434;-64
2024/03/22 01:51:35;;;;;;;4.97;2.60;;;;;;;8.39;100.00;101476.91;5054942;28;20450;-64
2024/03/22 01:54:02;;;;;;;7.47;3.03;;;;;;;8.41;100.00;101468.53;5054844;28;20458;-64
2024/03/22 01:56:28;;;;;;;4.90;2.60;;;;;;;8.42;100.00;101468.28;5054816;28;20537;-64
2024/03/22 01:58:56;;;;;;;5.03;1.80;;;;;;;8.45;100.00;101466.94;5054561;28;20486;-64
2024/03/22 02:01:24;;;;;;;5.20;2.63;;;;;;;8.50;100.00;101459.69;5054400;28;20449;-64
2024/03/22 02:03:50;;;;;;;4.23;2.30;;;;;;;8.54;100.00;101459.94;5054332;28;20461;-64
2024/03/22 02:06:17;;;;;;;5.87;2.47;;;;;;;8.57;100.00;101470.22;5054381;28;20528;-64
2024/03/22 02:08:44;;;;;;;4.50;2.13;;;;;;;8.57;100.00;101456.72;5054603;28;20208;-64
2024/03/22 02:11:10;;;;;;;8.20;3.30;;;;;;;8.55;100.00;101456.19;5054541;28;20442;-64
2024/03/22 02:13:36;;;;;;;5.43;2.10;;;;;;;8.59;100.00;101447.28;5054750;28;20541;-64
2024/03/22 02:16:04;;;;;;;6.43;3.00;;;;;;;8.58;100.00;101445.63;5054171;28;20525;-64
2024/03/22 02:18:31;;;;;;;8.37;3.47;;;;;;;8.53;100.00;101450.22;5054369;28;20423;-64
2024/03/22 02:20:58;;;;;;;5.77;2.40;;;;;;;8.51;100.00;101433.50;5054392;28;20529;-65
2024/03/22 02:23:31;;;;;;;6.17;2.93;;;;;;;8.52;100.00;101435.09;5054239;28;20464;-64
2024/03/22 02:25:58;;;;;;;7.93;2.30;;;;;;;8.51;100.00;101422.69;5054102;28;20426;-64
2024/03/22 02:28:23;;;;;;;5.20;2.33;;;;;;;8.48;100.00;101424.03;5054239;28;20481;-64
2024/03/22 02:30:50;;;;;;;5.33;1.87;;;;;;;8.49;100.00;101424.84;5054330;28;20516;-64
2024/03/22 02:33:16;;;;;;;5.33;2.50;;;;;;;8.53;100.00;101413.22;5053826;28;20234;-64
2024/03/22 02:35:43;;;;;;;6.93;3.23;;;;;;;8.54;100.00;101409.47;5054105;28;20533;-64
2024/03/22 02:38:08;;;;;;;7.23;3.20;;;;;;;8.49;100.00;101409.44;5054115;28;20242;-64
2024/03/22 02:40:36;;;;;;;4.40;2.07;;;;;;;8.47;100.00;101406.22;5053951;28;20506;-64
2024/03/22 02:43:03;;;;;;;4.90;2.63;;;;;;;8.46;100.00;101407.28;5053908;28;20314;-64
2024/03/22 02:45:30;;;;;;;5.67;3.00;;;;;;;8.49;100.00;101408.63;5053968;28;20437;-64
2024/03/22 02:47:57;;;;;;;6.90;2.97;;;;;;;8.50;100.00;101412.94;5053661;28;20871;-64
2024/03/22 02:50:22;;;;;;;6.93;2.80;;;;;;;8.49;100.00;101395.94;5053793;28;20470;-64
2024/03/22 02:52:49;;;;;;;5.83;2.63;;;;;;;8.47;100.00;101397.31;5053472;28;20502;-64
2024/03/22 02:55:15;;;;;;;5.90;2.90;;;;;;;8.47;100.00;101389.19;5053860;28;20207;-64
2024/03/22 02:57:43;;;;;;;8.33;2.67;;;;;;;8.43;100.00;101388.13;5053853;28;20446;-64
2024/03/22 03:00:09;;;;;;;9.20;2.87;;;;;;;8.45;100.00;101381.34;5053677;28;20224;-64
2024/03/22 03:02:36;;;;;;;5.80;2.37;;;;;;;8.48;100.00;101385.41;5053629;28;20469;-64
2024/03/22 03:05:02;;;;;;;5.23;2.40;;;;;;;8.45;100.00;101377.84;5053338;28;20445;-64
2024/03/22 03:07:28;;;;;;;5.30;2.20;;;;;;;8.43;100.00;101374.63;5053665;28;20486;-64
2024/03/22 03:09:54;;;;;;;13.20;3.47;;;;;;;8.44;100.00;101374.34;5053383;28;20923;-64
2024/03/22 03:12:21;;;;;;;9.70;3.40;;;;;;;8.44;100.00;101357.31;5053506;28;20519;-64
2024/03/22 03:14:48;;;;;;;5.83;2.23;;;;;;;8.45;100.00;101357.06;5053437;28;20322;-64
2024/03/22 03:17:14;;;;;;;7.03;2.70;;;;;;;8.46;100.00;101349.78;5053472;28;20484;-64
2024/03/22 03:19:40;;;;;;;7.23;2.73;;;;;;;8.44;100.00;101350.03;5053649;28;20512;-64
2024/03/22 03:22:06;;;;;;;4.40;1.80;;;;;;;8.45;100.00;101340.03;5053390;28;20989;-64
2024/03/22 03:24:32;;;;;;;5.33;2.40;;;;;;;8.44;100.00;101328.44;5053081;28;20294;-64
2024/03/22 03:26:59;;;;;;;5.57;2.23;;;;;;;8.45;100.00;101321.16;5053206;28;20532;-64
2024/03/22 03:29:24;;;;;;;5.77;2.60;;;;;;;8.49;100.00;101312.25;5053355;28;20222;-64
2024/03/22 03:31:52;;;;;;;6.70;2.80;;;;;;;8.56;100.00;101322.78;5053318;28;20446;-64
2024/03/22 03:34:19;;;;;;;5.17;2.43;;;;;;;8.57;100.00;101319.00;5053079;28;20214;-64
2024/03/22 03:36:46;;;;;;;8.40;3.37;;;;;;;8.57;100.00;101313.59;5052979;28;20503;-64
2024/03/22 03:39:11;;;;;;;7.40;2.80;;;;;;;8.57;100.00;101314.41;5053097;28;20482;-64
2024/03/22 03:41:38;;;;;;;6.60;2.33;;;;;;;8.58;100.00;101312.50;5053003;28;20449;-64
2024/03/22 03:44:04;;;;;;;7.77;2.70;;;;;;;8.61;100.00;101309.28;5053217;28;20273;-64
2024/03/22 03:46:31;;;;;;;5.90;2.07;;;;;;;8.63;100.00;101306.31;5053430;28;20447;-64
2024/03/22 03:48:58;;;;;;;8.70;2.63;;;;;;;8.60;100.00;101294.16;5053131;28;20200;-64
2024/03/22 03:51:24;;;;;;;8.70;2.60;;;;;;;8.62;100.00;101288.50;5052884;28;20537;-64
2024/03/22 03:53:50;;;;;;;6.00;2.40;;;;;;;8.62;100.00;101289.31;5053135;28;20489;-64
2024/03/22 03:56:17;;;;;;;4.90;2.90;;;;;;;8.60;100.00;101277.97;5052777;28;20562;-64
2024/03/22 03:58:42;;;;;;;10.40;3.37;;;;;;;8.60;100.00;101277.97;5053089;28;20236;-64
2024/03/22 04:01:09;;;;;;;5.43;2.50;;;;;;;8.64;100.00;101281.75;5053065;28;20544;-64
2024/03/22 04:03:35;;;;;;;7.87;2.60;;;;;;;8.66;100.00;101271.47;5053289;28;20600;-64
2024/03/22 04:06:03;;;;;;;6.13;2.60;;;;;;;8.70;100.00;101269.06;5053210;28;20446;-64
2024/03/22 04:08:30;;;;;;;6.77;2.73;;;;;;;8.71;100.00;101265.25;5052769;28;20254;-64
2024/03/22 04:10:57;;;;;;;7.13;2.67;;;;;;;8.73;100.00;101265.81;5053245;28;20517;-64
2024/03/22 04:13:24;;;;;;;7.57;3.30;;;;;;;8.77;100.00;101265.00;5052868;28;20466;-64
2024/03/22 04:15:50;;;;;;;8.80;3.87;;;;;;;8.78;100.00;101260.41;5052564;28;20438;-64
2024/03/22 04:18:16;;;;;;;4.70;2.40;;;;;;;8.80;100.00;101259.03;5053117;28;20438;-64
2024/03/22 04:20:43;;;;;;;7.20;3.20;;;;;;;8.85;100.00;101255.50;5052689;28;20990;-64
2024/03/22 04:23:10;;;;;;;7.90;2.90;;;;;;;8.84;100.00;101260.09;5054304;28;20738;-64
2024/03/22 04:25:37;;;;;;;10.20;3.70;;;;;;;8.86;100.00;101261.75;5056581;28;20458;-64
2024/03/22 04:28:03;;;;;;;5.40;2.27;;;;;;;8.86;100.00;101250.94;5056177;28;20454;-64
2024/03/22 04:30:29;;;;;;;5.43;1.90;;;;;;;8.94;100.00;101247.66;5056530;28;20517;-64
2024/03/22 04:32:55;;;;;;;5.63;2.20;;;;;;;8.94;100.00;101250.38;5056321;28;20537;-64
2024/03/22 04:35:21;;;;;;;8.60;3.53;;;;;;;8.99;100.00;101248.47;5056384;28;20521;-64
2024/03/22 04:37:48;;;;;;;4.77;2.37;;;;;;;9.00;100.00;101243.88;5056390;28;20230;-64
2024/03/22 04:40:16;;;;;;;8.13;3.43;;;;;;;9.02;100.00;101231.69;5056185;28;20481;-64
2024/03/22 04:42:43;;;;;;;6.50;2.90;;;;;;;9.02;100.00;101230.91;5055882;28;21053;-64
2024/03/22 04:45:09;;;;;;;5.37;2.80;;;;;;;9.00;100.00;101222.28;5056235;28;20470;-64
2024/03/22 04:47:37;;;;;;;8.17;2.83;;;;;;;9.00;100.00;101231.19;5055977;28;20476;-64
2024/03/22 04:50:03;;;;;;;6.80;2.80;;;;;;;9.03;100.00;101224.41;5056165;28;20445;-64
2024/03/22 04:52:30;;;;;;;10.90;2.70;;;;;;;9.04;100.00;101221.44;5055997;28;20462;-64
2024/03/22 04:54:55;;;;;;;8.07;2.97;;;;;;;9.02;100.00;101215.50;5056106;28;20438;-64
2024/03/22 04:57:23;;;;;;;7.33;2.93;;;;;;;8.96;100.00;101213.09;5055679;28;20895;-64
2024/03/22 04:59:49;;;;;;;5.60;3.10;;;;;;;8.97;100.00;101212.81;5055987;28;20662;-64
2024/03/22 05:02:17;;;;;;;6.57;2.33;;;;;;;8.99;100.00;101217.97;5055811;28;20497;-64
2024/03/22 05:04:43;;;;;;;5.60;2.40;;;;;;;9.03;100.00;101209.03;5055824;28;20283;-64
2024/03/22 05:07:09;;;;;;;6.70;3.10;;;;;;;9.00;100.00;101214.16;5055961;28;21001;-64
2024/03/22 05:09:35;;;;;;;6.13;2.50;;;;;;;9.03;100.00;101213.59;5055744;28;20200;-64
2024/03/22 05:12:02;;;;;;;5.80;3.00;;;;;;;9.03;100.00;101216.28;5055339;28;21048;-64
2024/03/22 05:14:29;;;;;;;6.30;2.87;;;;;;;9.07;100.00;101214.66;5055658;28;20227;-64
2024/03/22 05:16:55;;;;;;;6.83;3.20;;;;;;;9.08;100.00;101205.50;5055688;28;20442;-64
2024/03/22 05:19:21;;;;;;;8.30;3.97;;;;;;;9.10;100.00;101203.31;5055862;28;20449;-64
2024/03/22 05:21:47;;;;;;;4.57;2.10;;;;;;;9.12;100.00;101206.56;5055495;28;20442;-64
2024/03/22 05:24:13;;;;;;;7.97;2.70;;;;;;;9.14;100.00;101198.97;5055380;28;20224;-64
2024/03/22 05:26:40;;;;;;;8.93;3.00;;;;;;;9.14;100.00;101198.16;5055244;28;20545;-64
2024/03/22 05:29:05;;;;;;;5.73;2.83;;;;;;;9.16;100.00;101191.38;5055493;28;20238;-64
2024/03/22 05:31:47;;;;;;;10.10;3.00;;;;;;;9.15;100.00;101181.66;5054997;28;20439;-64
2024/03/22 05:34:12;;;;;;;6.20;2.80;;;;;;;9.14;100.00;101182.75;5054737;28;20309;-64
2024/03/22 05:36:39;;;;;;;6.70;2.53;;;;;;;9.15;100.00;101187.06;5055085;28;20772;-64
2024/03/22 05:39:05;;;;;;;5.83;2.43;;;;;;;9.16;100.00;101185.97;5055427;28;20207;-64
2024/03/22 05:41:31;;;;;;;3.97;1.77;;;;;;;9.16;100.00;101177.06;5055100;28;20523;-64
2024/03/22 05:43:57;;;;;;;6.87;3.63;;;;;;;9.18;100.00;101170.31;5055095;28;20226;-64
2024/03/22 05:46:24;;;;;;;5.07;2.00;;;;;;;9.19;100.00;101171.13;5055158;28;20442;-64
2024/03/22 05:48:52;;;;;;;16.03;3.43;;;;;;;9.26;100.00;101171.63;5055202;28;20303;-64
2024/03/22 05:51:18;;;;;;;9.00;2.73;;;;;;;9.30;100.00;101168.09;5055110;28;20446;-62
2024/03/22 05:53:44;;;;;;;6.53;2.80;;;;;;;9.29;100.00;101163.75;5055066;28;20489;-62
2024/03/22 05:56:11;;;;;;;5.43;2.63;;;;;;;9.30;100.00;101162.69;5054766;28;20531;-62
2024/03/22 05:58:36;;;;;;;6.70;2.40;;;;;;;9.29;100.00;101157.53;5054966;28;20239;-62
2024/03/22 06:01:03;;;;;;;7.50;3.10;;;;;;;9.31;100.00;101149.97;5054907;28;20510;-62
2024/03/22 06:03:30;;;;;;;9.23;3.23;;;;;;;9.29;100.00;101152.94;5054741;28;20228;-62
2024/03/22 06:06:00;;;;;;;7.60;2.30;;;;;;;9.33;100.00;101145.09;5054327;28;20442;-62
2024/03/22 06:08:26;;;;;;;4.20;2.10;;;;;;;9.34;100.00;101154.81;5054666;28;20503;-62
2024/03/22 06:10:52;;;;;;;7.53;2.23;;;;;;;9.38;100.00;101144.25;5054622;28;20537;-62
2024/03/22 06:13:19;;;;;;;6.10;2.37;;;;;;;9.34;99.94;101144.84;5054428;28;20545;-62
2024/03/22 06:15:48;;;;;;;7.27;3.07;;;;;;;9.34;99.50;101135.88;5054526;28;20204;-62
2024/03/22 06:18:14;;;;;;;5.77;2.23;;;;;;;9.35;99.77;101129.41;5054205;28;20788;-62
2024/03/22 06:20:40;;;;;;;10.00;3.30;;;;;;;9.36;99.52;101125.63;5054613;28;20526;-62
2024/03/22 06:23:08;;;;;;;11.23;4.10;;;;;;;9.38;100.00;101122.63;5054279;28;20494;-62
2024/03/22 06:25:34;;;;;;;7.37;3.37;;;;;;;9.44;100.00;101135.84;5054650;28;20298;-62
2024/03/22 06:28:00;;;;;;;5.67;2.37;;;;;;;9.46;99.85;101119.34;5053950;28;20537;-62
2024/03/22 06:30:27;;;;;;;8.60;3.47;;;;;;;9.47;99.06;101129.06;5054198;28;20206;-62
2024/03/22 06:32:54;;;;;;;4.10;1.70;;;;;;;9.49;98.83;101126.91;5054085;28;20523;-62
2024/03/22 06:35:20;;;;;;;6.70;2.57;;;;;;;9.54;98.43;101118.75;5054084;28;20446;-62
2024/03/22 06:37:48;;;;;;;7.20;2.47;;;;;;;9.55;97.63;101113.06;5054129;28;20449;-62
2024/03/22 06:40:16;;;;;;;5.70;2.80;;;;;;;9.58;98.13;101117.09;5054083;28;20255;-62
2024/03/22 06:42:43;;;;;;;7.13;3.37;;;;;;;9.65;98.62;101112.19;5053665;28;21039;-62
2024/03/22 06:45:09;;;;;;;5.93;2.63;;;;;;;9.70;99.03;101119.47;5053975;28;20474;-62
2024/03/22 06:47:36;;;;;;;8.30;3.00;;;;;;;9.77;98.42;101118.03;5053089;28;20466;-62
2024/03/22 06:50:01;;;;;;;5.60;2.90;;;;;;;9.85;98.12;101116.63;5053801;28;20526;-62
2024/03/22 06:52:28;;;;;;;7.00;2.97;;;;;;;9.82;96.33;101109.88;5054067;28;20529;-63
2024/03/22 06:54:54;;;;;;;8.77;3.83;;;;;;;9.80;95.53;101106.66;5053827;28;20204;-62
2024/03/22 06:57:22;;;;;;;7.87;3.20;;;;;;;9.81;95.39;101100.16;5053745;28;20527;-62
2024/03/22 06:59:47;;;;;;;4.60;2.40;;;;;;;9.91;95.98;101104.66;5053394;28;20263;-62
2024/03/22 07:02:14;;;;;;;5.80;2.67;;;;;;;9.92;94.95;101102.78;5053620;28;20501;-62
2024/03/22 07:04:40;;;;;;;7.57;3.10;;;;;;;9.93;94.79;101096.28;5053942;28;20226;-62
2024/03/22 07:07:07;;;;;;;7.53;2.90;;;;;;;9.95;94.43;101099.50;5053327;28;20811;-62
2024/03/22 07:09:32;;;;;;;7.87;3.53;;;;;;;9.98;94.30;101093.53;5054195;28;20207;-62
2024/03/22 07:11:59;;;;;;;6.33;2.87;;;;;;;10.03;94.09;101096.19;5053438;28;21017;-62
2024/03/22 07:14:26;;;;;;;5.57;2.47;;;;;;;10.08;94.37;101094.22;5053160;28;20567;-62
2024/03/22 07:16:53;;;;;;;11.00;3.67;;;;;;;10.14;94.27;101091.47;5053189;28;20818;-62
2024/03/22 07:19:20;;;;;;;5.83;2.60;;;;;;;10.15;94.73;101091.19;5053481;28;20530;-62
2024/03/22 07:21:47;;;;;;;7.47;3.60;;;;;;;10.24;94.47;101099.50;5053302;28;20580;-62
2024/03/22 07:24:13;;;;;;;7.20;2.50;;;;;;;10.30;94.17;101096.47;5052952;28;20458;-62
2024/03/22 07:26:39;;;;;;;9.20;4.17;;;;;;;10.30;93.44;101098.38;5061279;22;20549;-65
2024/03/22 07:29:05;;;;;;;9.67;4.00;;;;;;;10.34;93.44;101100.22;5033794;28;20209;-66
2024/03/22 07:31:33;;;;;;;9.60;4.37;;;;;;;10.41;94.52;101089.06;5033431;28;21018;-66
2024/03/22 07:33:58;;;;;;;13.40;4.67;;;;;;;10.41;94.53;101093.69;5033564;28;20315;-66
2024/03/22 07:36:26;;;;;;;8.40;4.23;;;;;;;10.44;94.83;101090.38;5033556;28;20522;-66
2024/03/22 07:38:52;;;;;;;9.50;4.33;;;;;;;10.48;94.95;101086.00;5033451;28;20676;-65
2024/03/22 07:41:18;;;;;;;11.20;3.50;;;;;;;10.47;93.21;101089.81;5033398;28;20489;-65
2024/03/22 07:43:44;;;;;;;9.87;4.37;;;;;;;10.51;93.58;101090.88;5033643;28;20311;-65
2024/03/22 07:46:11;;;;;;;11.13;4.90;;;;;;;10.54;92.76;101087.59;5033493;28;20443;-64
2024/03/22 07:48:38;;;;;;;9.60;3.33;;;;;;;10.54;93.71;101077.56;5033540;28;20277;-65
2024/03/22 07:51:05;;;;;;;7.63;4.33;;;;;;;10.60;93.35;101079.09;5033548;28;20447;-65
2024/03/22 07:53:31;;;;;;;10.10;4.20;;;;;;;10.66;92.89;101082.53;5033456;28;20467;-65
2024/03/22 07:55:57;;;;;;;8.50;3.60;;;;;;;10.72;92.25;101076.00;5033384;28;20931;-68
2024/03/22 07:58:23;;;;;;;14.50;3.77;;;;;;;10.80;91.94;101069.09;5035600;28;20653;-66
2024/03/22 08:00:49;;;;;;;12.07;5.33;;;;;;;10.90;91.89;101065.47;5037370;28;20569;-66
2024/03/22 08:03:16;;;;;;;11.60;3.90;;;;;;;11.02;92.19;101068.53;5037314;28;20223;-65
2024/03/22 08:05:44;;;;;;;10.53;4.20;;;;;;;11.07;91.11;101060.38;5037228;28;20465;-66
2024/03/22 08:08:09;;;;;;;14.17;5.03;;;;;;;11.09;90.91;101066.28;5037295;28;20446;-66
2024/03/22 08:10:36;;;;;;;10.27;5.07;;;;;;;11.10;90.28;101059.75;5037252;28;20446;-66
2024/03/22 08:13:02;;;;;;;16.40;5.87;;;;;;;11.13;89.89;101067.31;5036878;28;20650;-66
2024/03/22 08:15:28;;;;;;;13.87;5.57;;;;;;;11.16;91.01;101058.59;5036792;28;20439;-66
2024/03/22 08:17:55;;;;;;;9.37;3.60;;;;;;;11.21;90.19;101068.56;5037021;28;20292;-66
2024/03/22 08:20:22;;;;;;;13.50;6.00;;;;;;;11.26;89.71;101063.88;5037007;28;20478;-66
2024/03/22 08:22:49;;;;;;;9.40;4.03;;;;;;;11.23;89.97;101055.50;5036639;28;20494;-66
2024/03/22 08:25:17;;;;;;;12.27;5.40;;;;;;;11.26;89.60;101053.03;5036637;28;21006;-66
2024/03/22 08:27:43;;;;;;;10.57;5.40;;;;;;;11.21;90.38;101047.69;5036478;28;20459;-66
2024/03/22 08:30:11;;;;;;;15.07;5.20;;;;;;;11.26;89.94;101036.75;5036501;28;21001;-66
2024/03/22 08:32:37;;;;;;;11.03;4.90;;;;;;;11.29;88.90;101030.75;5036553;28;21018;-66
2024/03/22 08:35:04;;;;;;;12.80;5.00;;;;;;;11.34;88.80;101024.44;5036371;28;20548;-66
2024/03/22 08:37:30;;;;;;;12.33;5.40;;;;;;;11.42;88.77;101022.94;5036651;28;20434;-66
2024/03/22 08:39:58;;;;;;;9.80;4.23;;;;;;;11.51;88.62;101021.16;5036571;28;20530;-66
2024/03/22 08:42:23;;;;;;;9.97;4.13;;;;;;;11.58;88.43;101021.59;5036702;28;20274;-66
2024/03/22 08:44:50;;;;;;;13.70;6.10;;;;;;;11.63;87.65;101008.75;5036322;28;20846;-66
2024/03/22 08:47:16;;;;;;;8.93;4.33;;;;;;;11.69;87.49;101009.50;5036724;28;20287;-65
2024/03/22 08:49:44;;;;;;;15.43;5.73;;;;;;;11.71;87.63;101001.84;5036086;28;20562;-65
2024/03/22 08:52:10;;;;;;;13.40;5.30;;;;;;;11.81;88.04;101012.50;5036071;28;20331;-65
2024/03/22 08:54:36;;;;;;;8.67;3.77;;;;;;;11.91;86.69;101008.03;5036259;28;20530;-65
2024/03/22 08:57:03;;;;;;;11.03;5.17;;;;;;;12.03;85.75;101000.22;5036013;28;20240;-66
2024/03/22 08:59:30;;;;;;;15.93;5.60;;;;;;;12.11;85.66;101003.03;5036120;28;20451;-66
2024/03/22 09:01:55;;;;;;;11.17;5.53;;;;;;;12.18;85.99;101002.66;5035785;28;21020;-67
2024/03/22 09:04:22;;;;;;;11.10;5.13;;;;;;;12.26;85.14;100999.25;5036239;28;20530;-66
2024/03/22 09:06:47;;;;;;;14.23;5.27;;;;;;;12.35;84.76;100986.56;5036258;28;20210;-66
2024/03/22 09:09:14;;;;;;;8.33;3.40;;;;;;;12.40;85.14;100982.13;5035078;28;20530;-65
2024/03/22 09:11:40;;;;;;;8.63;3.90;;;;;;;12.44;85.12;100978.50;5035946;28;20219;-65
2024/03/22 09:14:08;;;;;;;8.00;4.50;;;;;;;12.47;84.63;100977.06;5035849;28;20542;-65
2024/03/22 09:16:33;;;;;;;10.53;5.13;;;;;;;12.44;84.06;100964.91;5035880;28;20207;-65
2024/03/22 09:19:00;;;;;;;12.00;4.93;;;;;;;12.43;84.48;100962.47;5035935;28;20518;-65
2024/03/22 09:21:26;;;;;;;8.97;4.17;;;;;;;12.46;84.62;100970.03;5036628;28;20320;-66
2024/03/22 09:23:52;;;;;;;10.67;5.10;;;;;;;12.47;83.72;100969.72;5035484;28;20459;-66
2024/03/22 09:26:18;;;;;;;11.63;5.30;;;;;;;12.53;84.22;100975.88;5035488;28;20903;-65
2024/03/22 09:28:47;;;;;;;10.10;4.30;;;;;;;12.57;83.77;100971.41;5035661;28;20534;-66
2024/03/22 09:31:14;;;;;;;8.93;3.00;;;;;;;12.56;84.27;100967.09;5035791;28;20212;-65
2024/03/22 09:33:42;;;;;;;9.73;3.87;;;;;;;12.56;83.79;100964.38;5035643;28;20455;-65
2024/03/22 09:36:08;;;;;;;9.57;4.60;;;;;;;12.57;83.77;100947.78;5035549;28;20443;-66
2024/03/22 09:38:34;;;;;;;8.90;4.37;;;;;;;12.59;83.73;100961.84;5035696;28;21054;-65
2024/03/22 09:41:00;;;;;;;10.73;5.17;;;;;;;12.58;83.92;100967.59;5035233;28;20667;-66
2024/03/22 09:43:28;;;;;;;8.90;4.23;;;;;;;12.60;83.54;100968.09;5035504;28;20495;-65
2024/03/22 09:45:55;;;;;;;7.67;4.27;;;;;;;12.63;83.45;100970.22;5035489;28;20251;-65
2024/03/22 09:48:24;;;;;;;15.33;5.17;;;;;;;12.62;84.23;100969.41;5035753;28;20519;-65
2024/03/22 09:50:49;;;;;;;11.30;5.03;;;;;;;12.73;83.39;100967.25;5035460;28;20442;-65
2024/03/22 09:53:19;;;;;;;12.50;4.27;;;;;;;12.80;82.67;100962.22;5034957;28;20554;-65
2024/03/22 09:55:45;;;;;;;8.57;3.63;;;;;;;12.85;82.31;100955.84;5035344;28;20295;-66
2024/03/22 09:58:12;;;;;;;13.03;4.40;;;;;;;12.83;82.79;100956.16;5034998;28;20533;-65
2024/03/22 10:00:37;;;;;;;10.50;3.90;;;;;;;12.92;83.56;100953.50;5034707;28;20794;-65
2024/03/22 10:03:05;;;;;;;10.30;4.37;;;;;;;13.04;81.64;100955.69;5035040;28;20549;-66
2024/03/22 10:05:32;;;;;;;13.30;4.50;;;;;;;13.07;81.83;100945.00;5034816;28;20981;-66
2024/03/22 10:07:59;;;;;;;12.87;4.77;;;;;;;13.07;80.81;100941.47;5034899;28;20451;-66
2024/03/22 10:10:25;;;;;;;10.83;4.97;;;;;;;13.08;81.74;100940.38;5035782;28;20813;-66
2024/03/22 10:12:52;;;;;;;9.33;3.90;;;;;;;13.13;80.85;100929.34;5034716;28;20833;-66
2024/03/22 10:15:18;;;;;;;10.27;4.37;;;;;;;13.21;81.19;100925.09;5034966;28;21027;-66
2024/03/22 10:17:46;;;;;;;8.50;3.80;;;;;;;13.19;80.19;100938.19;5034732;28;20522;-66
2024/03/22 10:20:13;;;;;;;7.60;4.53;;;;;;;13.21;80.49;100930.53;5034780;28;20532;-65
2024/03/22 10:22:44;;;;;;;10.90;4.67;;;;;;;13.37;81.06;100923.63;5034572;28;21007;-66
2024/03/22 10:25:10;;;;;;;10.37;4.33;;;;;;;13.45;79.80;100922.06;5034863;28;20514;-66
2024/03/22 10:27:39;;;;;;;12.77;4.60;;;;;;;13.55;79.41;100919.09;5034410;28;20883;-66
2024/03/22 10:30:08;;;;;;;10.57;4.70;;;;;;;13.63;78.41;100915.59;5034367;28;20664;-66
2024/03/22 10:32:36;;;;;;;8.30;3.93;;;;;;;13.84;78.26;100918.56;5034543;28;20917;-66
2024/03/22 10:35:04;;;;;;;10.83;4.20;;;;;;;13.85;76.56;100918.22;5034444;28;20445;-66
2024/03/22 10:37:32;;;;;;;6.87;3.73;;;;;;;13.97;77.91;100922.28;5034094;28;20973;-66
2024/03/22 10:40:07;;;;;;;10.80;4.17;;;;;;;14.13;76.85;100916.09;5034477;28;20435;-66
2024/03/22 10:42:34;;;;;;;10.17;3.20;;;;;;;14.19;75.48;100911.31;5033958;28;21020;-66
2024/03/22 10:45:00;;;;;;;10.03;4.87;;;;;;;14.30;75.17;100912.63;5034309;28;20522;-66
2024/03/22 10:47:30;;;;;;;8.60;3.90;;;;;;;14.33;75.33;100909.25;5034328;28;20887;-66
2024/03/22 10:50:04;;;;;;;8.53;4.13;;;;;;;14.36;74.28;100903.16;5034570;28;20195;-66
2024/03/22 10:52:32;;;;;;;10.10;4.70;;;;;;;14.42;73.46;100898.34;5033934;28;20467;-66
2024/03/22 10:55:00;;;;;;;9.30;4.07;;;;;;;14.34;75.03;100908.13;5033838;28;20439;-66
2024/03/22 10:57:27;;;;;;;7.93;3.40;;;;;;;14.36;75.18;100897.72;5033723;28;20844;-66
2024/03/22 10:59:54;;;;;;;10.50;4.30;;;;;;;14.42;75.63;100905.72;5034155;28;20435;-66
2024/03/22 11:02:25;;;;;;;12.07;4.00;;;;;;;14.31;75.25;100892.41;5033916;28;20881;-65
2024/03/22 11:04:56;;;;;;;9.43;4.17;;;;;;;14.22;76.59;100899.78;5034122;28;20451;-65
2024/03/22 11:07:25;;;;;;;6.83;3.70;;;;;;;14.11;76.16;100876.66;5033953;28;20443;-65
2024/03/22 11:09:52;;;;;;;11.50;4.17;;;;;;;14.07;76.52;100879.22;5033548;28;20931;-65
2024/03/22 11:12:21;;;;;;;9.70;4.17;;;;;;;14.01;76.91;100876.97;5034050;28;20466;-65
2024/03/22 11:14:49;;;;;;;7.97;4.57;;;;;;;13.92;77.39;100873.41;5033550;28;20962;-64
2024/03/22 11:17:15;;;;;;;7.17;3.37;;;;;;;13.85;78.22;100885.56;5033812;28;20439;-64
2024/03/22 11:19:42;;;;;;;11.63;5.50;;;;;;;13.82;78.36;100879.97;5033954;28;20439;-65
2024/03/22 11:22:08;;;;;;;8.03;3.60;;;;;;;13.75;79.80;100882.34;5033308;28;21024;-65